This is the latest recevied weather packets stored in our database for station/object AG1T-20. If no packets are shown the sender has not sent any weather packets the latest 10 day(s).
| Time | Temp. | Humidity | Pressure | Rain* | Wind** | Luminosity | Snow |
|---|---|---|---|---|---|---|---|
| 1787658005 | 16.67° C | 64% | 1024.9 hPa | 0 mm | - | 0 W/m² | - |
| 1787657405 | 17.22° C | 63% | 1024.9 hPa | 0 mm | - | 0 W/m² | - |
| 1787656805 | 17.78° C | 62% | 1024.9 hPa | 0 mm | - | 0 W/m² | - |
| 1787656205 | 16.67° C | 68% | 1024.9 hPa | 0 mm | - | 0 W/m² | - |
| 1787655605 | 16.67° C | 68% | 1024.9 hPa | 0 mm | - | 0 W/m² | - |
| 1787655005 | 16.67° C | 67% | 1025 hPa | 0 mm | - | 0 W/m² | - |
| 1787654405 | 16.67° C | 67% | 1025 hPa | 0 mm | - | 0 W/m² | - |
| 1787653804 | 17.22° C | 65% | 1025 hPa | 0 mm | - | 0 W/m² | - |
| 1787653205 | 17.78° C | 59% | 1025 hPa | 0 mm | - | 0 W/m² | - |
| 1787652605 | 17.22° C | 63% | 1025 hPa | 0 mm | - | 0 W/m² | - |
| 1787652005 | 17.78° C | 64% | 1025 hPa | 0 mm | - | 0 W/m² | - |
| 1787651405 | 17.78° C | 64% | 1025 hPa | 0 mm | - | 0 W/m² | - |
| 1787650805 | 17.22° C | 64% | 1025 hPa | 0 mm | - | 0 W/m² | - |
| 1787650205 | 17.22° C | 65% | 1025 hPa | 0 mm | - | 0 W/m² | - |
| 1787649605 | 17.22° C | 64% | 1025 hPa | 0 mm | - | 0 W/m² | - |
| 1787649005 | 17.78° C | 62% | 1025 hPa | 0 mm | - | 0 W/m² | - |
| 1787648405 | 18.33° C | 59% | 1025 hPa | 0 mm | - | 0 W/m² | - |
| 1787647805 | 18.89° C | 57% | 1025.1 hPa | 0 mm | - | 0 W/m² | - |
| 1787647205 | 18.89° C | 57% | 1025.1 hPa | 0 mm | - | 0 W/m² | - |
| 1787646605 | 18.89° C | 58% | 1025.1 hPa | 0 mm | - | 0 W/m² | - |
| 1787646005 | 18.89° C | 54% | 1025.1 hPa | 0 mm | - | 0 W/m² | - |
| 1787645405 | 19.44° C | 54% | 1025.1 hPa | 0 mm | - | 0 W/m² | - |
| 1787644804 | 18.89° C | 58% | 1025.1 hPa | 0 mm | - | 0 W/m² | - |
| 1787644205 | 18.89° C | 59% | 1025.1 hPa | 0 mm | - | 0 W/m² | - |
| 1787643605 | 20.56° C | 51% | 1025.1 hPa | 0 mm | - | 0 W/m² | - |
* Rain latest hour (hover to see other rain measurements)
** Current wind speed in m/s (hover to see current wind gust speed)